createdAt,value
2022-10-10T00:00:56.370Z,72.50
2022-10-10T00:06:00.214Z,72.40
2022-10-10T00:11:02.645Z,72.70
2022-10-10T00:16:05.785Z,72.90
2022-10-10T00:21:10.230Z,72.90
2022-10-10T00:26:17.718Z,73.40
2022-10-10T00:31:21.651Z,73.10
2022-10-10T00:36:25.348Z,72.90
2022-10-10T00:41:27.671Z,74.00
2022-10-10T00:46:30.157Z,73.50
2022-10-10T00:51:34.198Z,73.90
2022-10-10T00:56:40.165Z,73.70
2022-10-10T01:01:43.227Z,73.80
2022-10-10T01:06:47.044Z,73.70
2022-10-10T01:11:55.571Z,74.10
2022-10-10T01:17:06.747Z,74.10
2022-10-10T01:22:21.444Z,74.60
2022-10-10T01:27:31.619Z,74.90
2022-10-10T01:32:53.619Z,74.80
2022-10-10T01:38:17.224Z,75.10
2022-10-10T01:43:26.928Z,75.00
2022-10-10T01:48:45.902Z,74.60
2022-10-10T01:54:06.916Z,74.80
2022-10-10T01:59:30.201Z,74.80
2022-10-10T02:04:51.900Z,75.20
2022-10-10T02:09:58.565Z,75.60
2022-10-10T02:15:10.561Z,74.60
2022-10-10T02:20:25.293Z,74.80
2022-10-10T02:25:39.364Z,74.70
2022-10-10T02:30:50.247Z,74.70
2022-10-10T02:35:55.355Z,74.70
2022-10-10T02:41:02.666Z,74.90
2022-10-10T02:46:09.189Z,75.20
2022-10-10T02:51:17.630Z,75.20
2022-10-10T02:56:20.509Z,74.50
2022-10-10T03:01:24.986Z,74.40
2022-10-10T03:06:29.097Z,74.80
2022-10-10T03:11:42.483Z,74.70
2022-10-10T03:16:53.530Z,74.80
2022-10-10T03:22:01.638Z,74.70
2022-10-10T03:27:04.143Z,75.00
2022-10-10T03:32:11.293Z,75.00
2022-10-10T03:37:19.156Z,75.30
2022-10-10T03:42:24.837Z,75.20
2022-10-10T03:47:27.583Z,75.00
2022-10-10T03:52:34.550Z,75.00
2022-10-10T03:57:38.420Z,75.60
2022-10-10T04:02:49.872Z,75.30
2022-10-10T04:08:05.426Z,75.40
2022-10-10T04:13:10.228Z,75.70
2022-10-10T04:18:12.863Z,75.70
2022-10-10T04:23:19.391Z,75.50
2022-10-10T04:28:21.917Z,75.80
2022-10-10T04:34:12.101Z,75.60
2022-10-10T04:39:19.030Z,76.40
2022-10-10T04:44:25.484Z,75.60
2022-10-10T04:49:40.536Z,75.70
2022-10-10T04:54:47.653Z,75.80
2022-10-10T04:59:52.782Z,76.00
2022-10-10T05:04:55.191Z,75.70
2022-10-10T05:10:16.518Z,75.70
2022-10-10T05:15:19.684Z,76.60
2022-10-10T05:20:22.413Z,75.70
2022-10-10T05:30:52.711Z,76.00
2022-10-10T05:36:17.303Z,76.30
2022-10-10T05:41:30.400Z,76.40
2022-10-10T05:46:34.696Z,76.50
2022-10-10T05:51:37.501Z,76.20
2022-10-10T05:56:41.587Z,76.20
2022-10-10T06:02:01.656Z,76.60
2022-10-10T06:07:04.167Z,77.20
2022-10-10T06:12:08.580Z,76.50
2022-10-10T06:17:10.903Z,76.70
2022-10-10T06:22:13.171Z,76.70
2022-10-10T06:27:17.002Z,76.80
2022-10-10T06:32:19.271Z,77.10
2022-10-10T06:37:21.740Z,77.80
2022-10-10T06:42:25.372Z,78.10
2022-10-10T06:47:27.655Z,78.10
2022-10-10T06:52:30.407Z,77.70
2022-10-10T06:57:34.144Z,76.60
2022-10-10T07:02:36.531Z,74.60
2022-10-10T07:07:38.809Z,72.70
2022-10-10T07:12:52.272Z,72.20
2022-10-10T07:17:58.592Z,70.10
2022-10-10T07:23:00.897Z,69.60
2022-10-10T07:28:04.771Z,69.70
2022-10-10T07:33:07.408Z,69.10
2022-10-10T07:38:11.859Z,68.20
2022-10-10T07:43:16.276Z,67.00
2022-10-10T07:48:18.924Z,67.20
2022-10-10T07:53:21.689Z,67.00
2022-10-10T07:58:25.373Z,66.10
2022-10-10T08:03:27.600Z,63.60
2022-10-10T08:08:30.024Z,63.50
2022-10-10T08:13:34.317Z,61.80
2022-10-10T08:18:36.639Z,60.10
2022-10-10T08:23:39.349Z,58.80
2022-10-10T08:28:44.187Z,58.00
2022-10-10T08:33:48.048Z,56.20
2022-10-10T08:38:51.065Z,57.40
2022-10-10T08:43:58.342Z,56.60
2022-10-10T08:49:11.713Z,55.70
2022-10-10T08:54:18.841Z,55.20
2022-10-10T08:59:27.306Z,55.10
2022-10-10T09:04:29.719Z,53.80
2022-10-10T09:09:40.668Z,53.90
2022-10-10T09:14:53.012Z,53.30
2022-10-10T09:20:07.300Z,52.90
2022-10-10T09:25:19.214Z,52.50
2022-10-10T09:30:23.256Z,52.20
2022-10-10T09:35:28.564Z,52.60
2022-10-10T09:40:36.661Z,53.00
2022-10-10T09:45:47.732Z,52.00
2022-10-10T09:50:50.192Z,51.30
2022-10-10T09:55:54.495Z,51.10
2022-10-10T10:01:12.931Z,51.00
2022-10-10T10:06:16.544Z,50.00
2022-10-10T10:11:28.921Z,50.80
2022-10-10T10:16:38.520Z,51.20
2022-10-10T10:21:50.388Z,52.50
2022-10-10T10:26:53.056Z,52.50
2022-10-10T10:32:04.073Z,52.20
2022-10-10T10:37:16.585Z,52.50
2022-10-10T10:42:33.008Z,53.20
2022-10-10T10:47:49.721Z,53.50
2022-10-10T10:52:59.988Z,53.80
2022-10-10T11:04:15.953Z,54.80
2022-10-10T11:09:49.098Z,55.00
2022-10-10T11:14:58.137Z,55.20
2022-10-10T11:20:07.237Z,55.30
2022-10-10T11:25:19.023Z,55.50
2022-10-10T11:30:23.831Z,55.40
2022-10-10T11:35:35.008Z,55.70
2022-10-10T11:40:45.677Z,56.40
2022-10-10T11:45:56.009Z,56.50
2022-10-10T11:51:12.876Z,56.80
2022-10-10T11:56:26.149Z,57.30
2022-10-10T12:01:32.983Z,57.70
2022-10-10T12:06:42.350Z,57.10
2022-10-10T12:11:49.678Z,55.90
2022-10-10T12:16:52.481Z,55.30
2022-10-10T12:22:02.360Z,54.80
2022-10-10T12:27:44.599Z,55.00
2022-10-10T12:32:48.212Z,55.60
2022-10-10T12:38:17.030Z,56.00
2022-10-10T12:43:25.041Z,56.70
2022-10-10T12:48:27.780Z,56.90
2022-10-10T12:53:34.462Z,57.10
2022-10-10T12:58:41.249Z,57.50
2022-10-10T13:03:48.421Z,57.90
2022-10-10T13:08:55.712Z,58.40
2022-10-10T13:13:58.419Z,58.80
2022-10-10T13:19:01.167Z,59.00
2022-10-10T13:24:07.174Z,59.30
2022-10-10T13:29:20.037Z,59.80
2022-10-10T13:34:27.461Z,60.50
2022-10-10T13:39:33.362Z,60.80
2022-10-10T13:44:49.838Z,61.30
2022-10-10T13:49:56.906Z,62.30
2022-10-10T14:00:29.205Z,61.20
2022-10-10T14:05:32.496Z,62.90
2022-10-10T14:10:35.183Z,63.50
2022-10-10T14:15:46.327Z,64.10
2022-10-10T14:20:50.132Z,65.70
2022-10-10T14:25:52.426Z,65.40
2022-10-10T14:30:56.361Z,65.80
2022-10-10T14:35:59.983Z,66.40
2022-10-10T14:41:02.879Z,66.80
2022-10-10T14:46:15.291Z,67.10
2022-10-10T14:51:34.764Z,67.80
2022-10-10T14:57:07.437Z,67.90
2022-10-10T15:02:01.923Z,68.20
2022-10-10T15:07:13.768Z,68.50
2022-10-10T15:12:16.985Z,68.30
2022-10-10T15:17:20.934Z,68.70
2022-10-10T15:22:23.420Z,69.20
2022-10-10T15:27:26.144Z,69.40
2022-10-10T15:34:26.729Z,69.10
2022-10-10T15:39:29.610Z,70.30
2022-10-10T15:44:32.284Z,70.60
2022-10-10T15:49:56.433Z,70.70
2022-10-10T15:55:23.582Z,71.10
2022-10-10T16:00:26.409Z,71.10
2022-10-10T16:05:30.324Z,70.90
2022-10-10T16:10:37.426Z,71.00
2022-10-10T16:15:39.852Z,71.20
2022-10-10T16:20:43.413Z,70.70
2022-10-10T16:25:45.755Z,71.00
2022-10-10T16:30:47.955Z,70.80
2022-10-10T16:35:51.977Z,71.00
2022-10-10T16:40:58.512Z,71.20
2022-10-10T16:46:02.573Z,71.20
2022-10-10T16:51:08.926Z,71.20
2022-10-10T16:56:12.589Z,71.40
2022-10-10T17:01:17.923Z,71.30
2022-10-10T17:06:23.526Z,71.50
2022-10-10T17:11:27.644Z,71.70
2022-10-10T17:21:54.271Z,71.50
2022-10-10T17:26:58.113Z,71.50
2022-10-10T17:32:06.051Z,71.50
2022-10-10T17:37:10.764Z,71.50
2022-10-10T17:42:13.024Z,71.80
2022-10-10T17:47:15.686Z,71.60
2022-10-10T17:52:21.380Z,71.70
2022-10-10T17:57:24.267Z,72.00
2022-10-10T18:02:26.904Z,71.90
2022-10-10T18:07:30.748Z,71.70
2022-10-10T18:12:33.009Z,71.80
2022-10-10T18:17:35.254Z,71.80
2022-10-10T18:22:39.829Z,71.70
2022-10-10T18:27:42.168Z,71.90
2022-10-10T18:32:44.487Z,71.80
2022-10-10T18:37:48.669Z,72.00
2022-10-10T18:42:50.998Z,72.10
2022-10-10T18:47:53.267Z,72.20
2022-10-10T18:52:57.085Z,72.40
2022-10-10T18:58:00.033Z,72.80
2022-10-10T19:03:04.370Z,72.60
2022-10-10T19:08:08.913Z,72.80
2022-10-10T19:13:12.212Z,73.00
2022-10-10T19:18:14.606Z,72.90
2022-10-10T19:23:18.278Z,72.90
2022-10-10T19:28:20.659Z,73.00
2022-10-10T19:33:23.536Z,73.10
2022-10-10T19:38:28.140Z,73.30
2022-10-10T19:43:30.545Z,73.70
2022-10-10T19:48:33.638Z,73.80
2022-10-10T19:53:38.644Z,73.70
2022-10-10T19:58:42.320Z,73.80
2022-10-10T20:03:45.307Z,73.50
2022-10-10T20:08:49.700Z,73.50
2022-10-10T20:13:52.179Z,73.60
2022-10-10T20:18:55.192Z,73.60
2022-10-10T20:24:00.205Z,73.90
2022-10-10T20:29:03.830Z,74.40
2022-10-10T20:34:06.987Z,74.50
2022-10-10T20:39:14.093Z,74.50
2022-10-10T20:44:16.412Z,74.60
2022-10-10T20:49:20.910Z,73.90
2022-10-10T20:54:25.085Z,73.80
2022-10-10T20:59:27.646Z,73.70
2022-10-10T21:04:30.370Z,73.60
2022-10-10T21:09:34.119Z,73.70
2022-10-10T21:14:36.343Z,73.80
2022-10-10T21:19:38.587Z,73.70
2022-10-10T21:24:42.442Z,74.00
2022-10-10T21:29:44.590Z,74.20
2022-10-10T21:34:47.107Z,74.30
2022-10-10T21:39:50.817Z,74.20
2022-10-10T21:44:52.952Z,74.30
2022-10-10T21:49:55.186Z,74.50
2022-10-10T21:54:59.222Z,74.60
2022-10-10T22:00:01.522Z,75.00
2022-10-10T22:05:03.993Z,75.10
2022-10-10T22:10:10.603Z,75.30
2022-10-10T22:15:13.855Z,75.60
2022-10-10T22:20:16.527Z,75.50
2022-10-10T22:25:20.492Z,75.60
2022-10-10T22:30:22.778Z,75.80
2022-10-10T22:35:25.081Z,75.80
2022-10-10T22:40:29.927Z,75.70
2022-10-10T22:45:32.729Z,77.00
2022-10-10T22:50:35.145Z,77.20
2022-10-10T22:55:39.216Z,76.60
2022-10-10T23:00:41.522Z,76.70
2022-10-10T23:05:44.174Z,76.60
2022-10-10T23:10:48.141Z,76.60
2022-10-10T23:15:50.573Z,76.70
2022-10-10T23:20:52.833Z,76.70
2022-10-10T23:25:59.505Z,77.00
2022-10-10T23:31:02.643Z,77.40
2022-10-10T23:36:08.536Z,77.10
2022-10-10T23:41:13.406Z,77.20
2022-10-10T23:46:15.763Z,77.50
2022-10-10T23:51:18.401Z,77.40
2022-10-10T23:56:22.829Z,77.60
